createdAt,value
2018-01-07T00:02:16.997Z,7.61
2018-01-07T00:04:44.476Z,7.57
2018-01-07T00:07:11.951Z,7.59
2018-01-07T00:09:39.741Z,7.54
2018-01-07T00:12:07.199Z,7.55
2018-01-07T00:14:34.792Z,7.50
2018-01-07T00:17:02.256Z,7.49
2018-01-07T00:19:29.721Z,7.54
2018-01-07T00:21:57.186Z,7.48
2018-01-07T00:24:24.692Z,7.45
2018-01-07T00:26:52.262Z,7.40
2018-01-07T00:29:19.812Z,7.46
2018-01-07T00:31:48.401Z,7.48
2018-01-07T00:34:16.638Z,7.45
2018-01-07T00:36:44.269Z,7.45
2018-01-07T00:39:11.929Z,7.59
2018-01-07T00:41:39.488Z,7.61
2018-01-07T00:44:08.040Z,7.54
2018-01-07T00:46:35.521Z,7.51
2018-01-07T00:49:02.982Z,7.50
2018-01-07T00:51:30.438Z,7.53
2018-01-07T00:53:57.900Z,7.52
2018-01-07T00:56:25.447Z,7.55
2018-01-07T00:58:54.037Z,7.58
2018-01-07T01:01:21.535Z,7.54
2018-01-07T01:03:48.990Z,7.59
2018-01-07T01:06:16.468Z,7.64
2018-01-07T01:08:43.969Z,7.61
2018-01-07T01:11:11.439Z,7.84
2018-01-07T01:13:38.966Z,7.76
2018-01-07T01:16:06.426Z,7.66
2018-01-07T01:18:33.888Z,7.65
2018-01-07T01:21:01.351Z,7.67
2018-01-07T01:23:28.826Z,7.64
2018-01-07T01:25:56.300Z,7.60
2018-01-07T01:28:23.768Z,7.62
2018-01-07T01:30:51.236Z,7.68
2018-01-07T01:33:18.683Z,7.64
2018-01-07T01:35:46.159Z,7.64
2018-01-07T01:38:13.608Z,7.64
2018-01-07T01:40:41.156Z,7.66
2018-01-07T01:43:08.635Z,7.66
2018-01-07T01:45:36.095Z,7.68
2018-01-07T01:48:03.585Z,7.73
2018-01-07T01:50:31.039Z,7.69
2018-01-07T01:52:58.507Z,7.63
2018-01-07T01:55:25.983Z,7.66
2018-01-07T01:57:53.502Z,7.64
2018-01-07T02:00:20.995Z,7.66
2018-01-07T02:02:48.440Z,7.66
2018-01-07T02:05:16.767Z,7.63
2018-01-07T02:07:44.239Z,7.75
2018-01-07T02:10:11.704Z,7.70
2018-01-07T02:12:39.169Z,7.73
2018-01-07T02:15:06.641Z,7.66
2018-01-07T02:17:34.100Z,7.55
2018-01-07T02:20:01.572Z,7.62
2018-01-07T02:22:29.924Z,7.60
2018-01-07T02:24:57.389Z,7.55
2018-01-07T02:27:24.878Z,7.56
2018-01-07T02:29:53.748Z,7.65
2018-01-07T02:32:21.199Z,7.64
2018-01-07T02:34:48.697Z,7.66
2018-01-07T02:37:16.167Z,7.65
2018-01-07T02:39:43.651Z,7.64
2018-01-07T02:42:11.140Z,7.68
2018-01-07T02:44:38.601Z,7.74
2018-01-07T02:47:06.068Z,7.71
2018-01-07T02:49:33.592Z,7.77
2018-01-07T02:52:01.119Z,7.81
2018-01-07T02:54:28.573Z,7.81
2018-01-07T02:56:56.036Z,7.76
2018-01-07T02:59:23.484Z,7.76
2018-01-07T03:01:50.986Z,7.76
2018-01-07T03:04:18.479Z,7.77
2018-01-07T03:06:45.945Z,7.78
2018-01-07T03:09:13.429Z,7.83
2018-01-07T03:11:40.884Z,7.84
2018-01-07T03:14:08.331Z,7.84
2018-01-07T03:16:35.821Z,7.85
2018-01-07T03:19:03.289Z,7.86
2018-01-07T03:21:30.739Z,7.88
2018-01-07T03:23:58.254Z,7.96
2018-01-07T03:26:25.703Z,8.00
2018-01-07T03:28:53.171Z,8.05
2018-01-07T03:31:20.635Z,8.08
2018-01-07T03:33:48.099Z,8.05
2018-01-07T03:36:15.576Z,8.07
2018-01-07T03:38:43.723Z,8.07
2018-01-07T03:41:11.196Z,8.10
2018-01-07T03:43:38.672Z,8.04
2018-01-07T03:46:06.184Z,8.05
2018-01-07T03:48:33.680Z,8.02
2018-01-07T03:51:01.148Z,8.01
2018-01-07T03:53:28.621Z,7.95
2018-01-07T03:55:56.073Z,7.94
2018-01-07T03:58:24.480Z,8.10
2018-01-07T04:00:51.940Z,8.02
2018-01-07T04:03:19.398Z,8.09
2018-01-07T04:05:46.901Z,8.03
2018-01-07T04:08:14.349Z,7.94
2018-01-07T04:10:41.801Z,7.90
2018-01-07T04:13:09.259Z,7.90
2018-01-07T04:15:36.711Z,7.90
2018-01-07T04:18:04.171Z,7.94
2018-01-07T04:20:31.635Z,8.01
2018-01-07T04:22:59.100Z,8.04
2018-01-07T04:25:26.580Z,8.15
2018-01-07T04:27:54.039Z,8.30
2018-01-07T04:30:21.573Z,8.24
2018-01-07T04:32:49.057Z,8.20
2018-01-07T04:35:16.515Z,8.22
2018-01-07T04:37:44.004Z,8.25
2018-01-07T04:40:11.479Z,8.27
2018-01-07T04:42:38.928Z,8.28
2018-01-07T04:45:06.395Z,8.26
2018-01-07T04:47:33.856Z,8.24
2018-01-07T04:50:01.311Z,8.25
2018-01-07T04:52:28.806Z,8.30
2018-01-07T04:54:56.248Z,8.26
2018-01-07T04:57:23.701Z,8.23
2018-01-07T04:59:51.187Z,8.25
2018-01-07T05:02:19.260Z,8.26
2018-01-07T05:04:46.913Z,8.31
2018-01-07T05:07:14.379Z,8.49
2018-01-07T05:09:41.846Z,8.52
2018-01-07T05:12:09.340Z,8.54
2018-01-07T05:14:36.812Z,8.52
2018-01-07T05:17:04.260Z,8.51
2018-01-07T05:19:31.716Z,8.43
2018-01-07T05:21:59.202Z,8.32
2018-01-07T05:24:26.664Z,8.49
2018-01-07T05:26:54.104Z,8.49
2018-01-07T05:29:21.572Z,8.60
2018-01-07T05:31:49.023Z,8.51
2018-01-07T05:34:16.474Z,8.46
2018-01-07T05:36:43.950Z,8.42
2018-01-07T05:39:11.404Z,8.40
2018-01-07T05:41:38.868Z,8.36
2018-01-07T05:44:06.336Z,8.40
2018-01-07T05:46:33.860Z,8.64
2018-01-07T05:49:01.335Z,8.54
2018-01-07T05:51:28.837Z,8.49
2018-01-07T05:53:56.300Z,8.49
2018-01-07T05:56:23.864Z,8.56
2018-01-07T05:58:51.322Z,8.63
2018-01-07T06:01:18.808Z,8.58
2018-01-07T06:03:46.258Z,8.62
2018-01-07T06:06:13.720Z,8.60
2018-01-07T06:08:41.195Z,8.64
2018-01-07T06:11:08.670Z,8.62
2018-01-07T06:13:36.127Z,8.61
2018-01-07T06:16:03.573Z,8.66
2018-01-07T06:18:31.035Z,8.61
2018-01-07T06:20:58.492Z,8.61
2018-01-07T06:23:25.935Z,8.58
2018-01-07T06:25:53.399Z,8.59
2018-01-07T06:28:20.851Z,8.59
2018-01-07T06:30:48.327Z,8.61
2018-01-07T06:33:15.785Z,8.61
2018-01-07T06:35:43.243Z,8.65
2018-01-07T06:38:10.712Z,8.74
2018-01-07T06:40:38.157Z,8.71
2018-01-07T06:43:05.611Z,8.70
2018-01-07T06:45:33.085Z,8.72
2018-01-07T06:48:00.531Z,8.66
2018-01-07T06:50:27.983Z,8.62
2018-01-07T06:52:55.466Z,8.59
2018-01-07T06:55:22.927Z,8.61
2018-01-07T06:57:50.644Z,8.55
2018-01-07T07:00:18.113Z,8.52
2018-01-07T07:02:45.578Z,8.50
2018-01-07T07:05:13.068Z,8.53
2018-01-07T07:07:40.518Z,8.53
2018-01-07T07:10:08.000Z,8.54
2018-01-07T07:12:35.478Z,8.57
2018-01-07T07:15:02.967Z,8.61
2018-01-07T07:17:30.423Z,8.65
2018-01-07T07:19:57.879Z,8.70
2018-01-07T07:22:25.334Z,8.78
2018-01-07T07:24:52.865Z,8.86
2018-01-07T07:27:20.365Z,8.78
2018-01-07T07:29:47.819Z,8.76
2018-01-07T07:32:15.276Z,8.70
2018-01-07T07:34:42.751Z,8.72
2018-01-07T07:37:10.203Z,8.74
2018-01-07T07:39:37.655Z,8.78
2018-01-07T07:42:05.171Z,8.83
2018-01-07T07:44:32.627Z,8.87
2018-01-07T07:47:00.131Z,8.92
2018-01-07T07:49:27.600Z,9.06
2018-01-07T07:51:55.068Z,9.02
2018-01-07T07:54:22.549Z,8.99
2018-01-07T07:56:50.013Z,8.97
2018-01-07T07:59:17.491Z,8.95
2018-01-07T08:01:44.961Z,9.08
2018-01-07T08:04:12.423Z,9.09
2018-01-07T08:06:39.914Z,9.11
2018-01-07T08:09:07.375Z,9.10
2018-01-07T08:11:34.835Z,9.13
2018-01-07T08:14:02.294Z,9.16
2018-01-07T08:16:29.741Z,9.20
2018-01-07T08:34:50.587Z,9.35
2018-01-07T08:37:19.257Z,9.41
2018-01-07T08:39:46.708Z,9.47
2018-01-07T08:42:14.165Z,9.49
2018-01-07T08:44:41.630Z,9.51
2018-01-07T08:47:09.092Z,9.55
2018-01-07T08:49:36.552Z,9.54
2018-01-07T08:52:04.022Z,9.58
2018-01-07T08:54:31.470Z,9.56
2018-01-07T08:56:58.932Z,9.59
2018-01-07T08:59:26.401Z,9.63
2018-01-07T09:01:53.862Z,9.68
2018-01-07T09:04:21.332Z,9.68
2018-01-07T09:06:48.796Z,9.70
2018-01-07T09:09:16.257Z,9.76
2018-01-07T09:11:44.141Z,9.77
2018-01-07T09:14:11.595Z,9.79
2018-01-07T09:16:39.097Z,9.75
2018-01-07T09:19:06.581Z,9.72
2018-01-07T09:21:34.032Z,9.66
2018-01-07T09:24:01.700Z,9.67
2018-01-07T09:26:29.164Z,9.66
2018-01-07T09:28:56.670Z,9.67
2018-01-07T09:31:24.155Z,9.74
2018-01-07T09:33:51.731Z,9.76
2018-01-07T09:36:19.203Z,9.82
2018-01-07T09:38:46.744Z,9.79
2018-01-07T09:41:14.259Z,9.77
2018-01-07T09:43:41.745Z,9.89
2018-01-07T09:46:09.228Z,10.00
2018-01-07T09:48:36.687Z,10.05
2018-01-07T09:51:04.148Z,10.23
2018-01-07T09:53:31.610Z,10.28
2018-01-07T09:55:59.072Z,10.27
2018-01-07T09:58:26.563Z,10.26
2018-01-07T10:00:54.042Z,10.19
2018-01-07T10:03:21.505Z,10.24
2018-01-07T10:05:49.053Z,10.30
2018-01-07T10:08:16.506Z,10.37
2018-01-07T10:10:43.968Z,10.42
2018-01-07T10:13:11.419Z,10.54
2018-01-07T10:15:38.878Z,10.53
2018-01-07T10:18:06.346Z,10.58
2018-01-07T10:20:33.815Z,10.71
2018-01-07T10:23:01.276Z,10.64
2018-01-07T10:25:28.758Z,10.67
2018-01-07T10:27:56.247Z,10.77
2018-01-07T10:30:23.815Z,10.74
2018-01-07T10:32:51.264Z,10.75
2018-01-07T10:35:18.742Z,10.69
2018-01-07T10:37:46.209Z,10.77
2018-01-07T10:40:13.701Z,10.85
2018-01-07T10:42:41.176Z,10.87
2018-01-07T10:45:08.692Z,11.01
2018-01-07T10:47:36.155Z,10.98
2018-01-07T10:50:03.658Z,10.99
2018-01-07T10:52:31.176Z,10.99
2018-01-07T10:54:58.641Z,10.98
2018-01-07T10:57:26.100Z,10.95
2018-01-07T10:59:53.571Z,10.90
2018-01-07T11:02:26.471Z,10.90
2018-01-07T11:04:53.948Z,10.89
2018-01-07T11:07:21.427Z,10.89
2018-01-07T11:09:48.891Z,10.89
2018-01-07T11:12:16.352Z,10.86
2018-01-07T11:14:43.811Z,10.90
2018-01-07T11:17:11.323Z,10.91
2018-01-07T11:19:38.913Z,10.92
2018-01-07T11:22:07.881Z,10.86
2018-01-07T11:24:37.115Z,10.84
2018-01-07T11:27:04.590Z,10.89
2018-01-07T11:29:32.053Z,10.75
2018-01-07T11:31:59.547Z,10.70
2018-01-07T11:34:27.007Z,10.68
2018-01-07T11:36:54.559Z,10.70
2018-01-07T11:39:22.105Z,10.73
2018-01-07T11:41:49.540Z,10.68
2018-01-07T11:44:17.644Z,10.69
2018-01-07T11:46:45.122Z,10.72
2018-01-07T11:49:12.603Z,10.76
2018-01-07T11:51:40.061Z,10.68
2018-01-07T11:54:08.181Z,10.62
2018-01-07T11:56:35.809Z,10.63
2018-01-07T11:59:03.307Z,10.58
2018-01-07T12:01:30.792Z,10.52
2018-01-07T12:03:58.270Z,10.53
2018-01-07T12:06:25.733Z,10.52
2018-01-07T12:08:53.204Z,10.64
2018-01-07T12:11:20.760Z,10.57
2018-01-07T12:13:48.250Z,10.51
2018-01-07T12:16:16.431Z,10.45
2018-01-07T12:18:44.220Z,10.41
2018-01-07T12:21:12.068Z,10.38
2018-01-07T12:23:40.105Z,10.42
2018-01-07T12:26:07.556Z,10.53
2018-01-07T12:28:35.072Z,10.51
2018-01-07T12:31:02.564Z,10.45
2018-01-07T12:33:30.025Z,10.49
2018-01-07T12:35:57.507Z,10.41
2018-01-07T12:38:24.987Z,10.40
2018-01-07T12:40:52.487Z,10.41
2018-01-07T12:43:19.998Z,10.47
2018-01-07T12:45:47.648Z,10.52
2018-01-07T12:48:15.117Z,10.42
2018-01-07T12:50:42.611Z,10.32
2018-01-07T12:53:10.226Z,10.36
2018-01-07T12:55:37.696Z,10.31
2018-01-07T12:58:05.274Z,10.29
2018-01-07T13:00:32.763Z,10.32
2018-01-07T13:03:00.268Z,10.27
2018-01-07T13:05:27.841Z,10.24
2018-01-07T13:07:55.333Z,10.18
2018-01-07T13:10:22.851Z,10.16
2018-01-07T13:12:52.558Z,10.17
2018-01-07T13:15:21.025Z,10.16
2018-01-07T13:17:48.541Z,10.15
2018-01-07T13:20:16.035Z,10.17
2018-01-07T13:22:43.510Z,10.13
2018-01-07T13:25:10.992Z,10.20
2018-01-07T13:27:38.552Z,10.13
2018-01-07T13:30:06.085Z,10.08
2018-01-07T13:32:33.754Z,10.08
2018-01-07T13:35:01.368Z,10.05
2018-01-07T13:37:28.890Z,10.09
2018-01-07T13:39:56.438Z,10.03
2018-01-07T13:42:23.933Z,9.99
2018-01-07T13:44:51.476Z,9.98
2018-01-07T13:47:19.004Z,9.97
2018-01-07T13:49:46.522Z,9.95
2018-01-07T13:52:14.045Z,9.96
2018-01-07T13:54:41.538Z,9.96
2018-01-07T13:57:09.027Z,9.94
2018-01-07T13:59:36.505Z,10.03
2018-01-07T14:02:03.987Z,10.08
2018-01-07T14:04:31.505Z,10.09
2018-01-07T14:06:58.963Z,9.96
2018-01-07T14:09:26.492Z,9.89
2018-01-07T14:11:53.951Z,9.80
2018-01-07T14:14:21.441Z,9.79
2018-01-07T14:16:48.932Z,9.76
2018-01-07T14:19:16.388Z,9.78
2018-01-07T14:21:43.841Z,9.76
2018-01-07T14:24:11.389Z,9.72
2018-01-07T14:26:38.860Z,9.68
2018-01-07T14:29:06.340Z,9.70
2018-01-07T14:31:33.871Z,9.73
2018-01-07T14:34:01.329Z,9.82
2018-01-07T14:36:29.053Z,9.79
2018-01-07T14:38:56.516Z,9.73
2018-01-07T14:41:23.988Z,9.77
2018-01-07T14:43:51.440Z,9.72
2018-01-07T14:46:18.916Z,9.63
2018-01-07T14:48:46.499Z,9.55
2018-01-07T14:51:13.995Z,9.48
2018-01-07T14:53:41.468Z,9.43
2018-01-07T14:56:08.935Z,9.45
2018-01-07T14:58:36.418Z,9.41
2018-01-07T15:01:03.881Z,9.39
2018-01-07T15:03:31.367Z,9.39
2018-01-07T15:05:58.847Z,9.48
2018-01-07T15:08:27.391Z,9.47
2018-01-07T15:10:54.854Z,9.42
2018-01-07T15:13:22.327Z,9.38
2018-01-07T15:15:49.800Z,9.39
2018-01-07T15:18:17.276Z,9.38
2018-01-07T15:20:44.762Z,9.34
2018-01-07T15:23:12.219Z,9.34
2018-01-07T15:25:39.738Z,9.32
2018-01-07T15:28:07.245Z,9.33
2018-01-07T15:30:34.700Z,9.32
2018-01-07T15:33:02.205Z,9.31
2018-01-07T15:35:29.720Z,9.29
2018-01-07T15:37:57.182Z,9.28
2018-01-07T15:40:24.629Z,9.25
2018-01-07T15:42:52.196Z,9.24
2018-01-07T15:45:19.667Z,9.24
2018-01-07T15:47:47.249Z,9.21
2018-01-07T15:50:14.912Z,9.20
2018-01-07T15:52:42.369Z,9.18
2018-01-07T15:55:09.857Z,9.17
2018-01-07T15:57:37.348Z,9.20
2018-01-07T16:00:04.858Z,9.24
2018-01-07T16:02:32.444Z,9.33
2018-01-07T16:04:59.934Z,9.34
2018-01-07T16:07:27.408Z,9.37
2018-01-07T16:09:54.896Z,9.32
2018-01-07T16:12:22.386Z,9.27
2018-01-07T16:14:49.877Z,9.24
2018-01-07T16:17:17.340Z,9.20
2018-01-07T16:19:44.825Z,9.19
2018-01-07T16:22:12.344Z,9.21
2018-01-07T16:24:39.835Z,9.27
2018-01-07T16:29:41.038Z,9.15
2018-01-07T16:32:08.489Z,9.10
2018-01-07T16:34:35.976Z,9.06
2018-01-07T16:37:03.448Z,9.09
2018-01-07T16:52:29.348Z,8.96
2018-01-07T16:54:56.810Z,8.95
2018-01-07T16:57:24.280Z,8.97
2018-01-07T16:59:51.799Z,9.00
2018-01-07T17:02:19.266Z,8.95
2018-01-07T17:04:46.734Z,8.93
2018-01-07T17:07:14.324Z,9.06
2018-01-07T17:09:41.783Z,9.01
2018-01-07T17:12:09.232Z,8.99
2018-01-07T17:14:36.713Z,9.00
2018-01-07T17:17:04.271Z,9.00
2018-01-07T17:19:31.794Z,8.96
2018-01-07T17:21:59.290Z,8.95
2018-01-07T17:24:27.037Z,8.90
2018-01-07T17:26:54.561Z,8.90
2018-01-07T17:29:22.068Z,8.89
2018-01-07T17:31:49.597Z,8.82
2018-01-07T17:34:17.222Z,8.86
2018-01-07T17:36:44.736Z,8.81
2018-01-07T17:39:12.261Z,8.76
2018-01-07T17:41:39.720Z,8.85
2018-01-07T17:44:07.195Z,8.82
2018-01-07T17:46:34.794Z,8.78
2018-01-07T17:49:02.244Z,8.79
2018-01-07T17:51:29.744Z,8.81
2018-01-07T17:53:57.213Z,8.76
2018-01-07T17:56:24.675Z,8.80
2018-01-07T17:58:52.156Z,8.87
2018-01-07T18:01:19.632Z,8.79
2018-01-07T18:03:47.196Z,8.80
2018-01-07T18:06:14.687Z,8.74
2018-01-07T18:08:42.212Z,8.74
2018-01-07T18:11:09.714Z,8.74
2018-01-07T18:13:37.168Z,8.72
2018-01-07T18:16:04.741Z,8.78
2018-01-07T18:18:32.375Z,8.66
2018-01-07T18:20:59.846Z,8.60
2018-01-07T18:23:27.380Z,8.58
2018-01-07T18:25:54.863Z,8.58
2018-01-07T18:28:22.330Z,8.54
2018-01-07T18:30:49.812Z,8.54
2018-01-07T18:33:19.452Z,8.52
2018-01-07T18:35:47.015Z,8.48
2018-01-07T18:38:14.563Z,8.45
2018-01-07T18:40:42.624Z,8.40
2018-01-07T18:43:10.100Z,8.43
2018-01-07T18:45:37.855Z,8.48
2018-01-07T18:48:05.381Z,8.47
2018-01-07T18:50:33.093Z,8.39
2018-01-07T18:53:00.573Z,8.32
2018-01-07T18:55:28.112Z,8.31
2018-01-07T18:58:00.766Z,8.27
2018-01-07T19:00:28.912Z,8.12
2018-01-07T19:02:56.408Z,8.07
2018-01-07T19:05:23.928Z,8.06
2018-01-07T19:07:51.437Z,7.97
2018-01-07T19:10:18.916Z,8.01
2018-01-07T19:12:47.223Z,7.95
2018-01-07T19:15:14.760Z,7.93
2018-01-07T19:17:42.257Z,7.88
2018-01-07T19:20:09.830Z,7.84
2018-01-07T19:22:37.339Z,7.94
2018-01-07T19:25:04.832Z,7.86
2018-01-07T19:27:32.381Z,7.87
2018-01-07T19:29:59.851Z,7.79
2018-01-07T19:32:27.471Z,7.82
2018-01-07T19:34:55.043Z,7.69
2018-01-07T19:37:22.684Z,7.69
2018-01-07T19:39:50.422Z,7.71
2018-01-07T19:42:18.242Z,7.73
2018-01-07T19:44:46.031Z,7.69
2018-01-07T19:47:13.884Z,7.67
2018-01-07T19:49:41.684Z,7.59
2018-01-07T19:52:09.608Z,7.58
2018-01-07T19:54:38.378Z,7.58
2018-01-07T19:57:06.207Z,7.52
2018-01-07T19:59:34.003Z,7.50
2018-01-07T20:02:01.823Z,7.59
2018-01-07T20:04:29.718Z,7.48
2018-01-07T20:06:57.685Z,7.52
2018-01-07T20:09:25.470Z,7.55
2018-01-07T20:11:53.436Z,7.55
2018-01-07T20:14:21.198Z,7.51
2018-01-07T20:16:48.997Z,7.48
2018-01-07T20:19:16.863Z,7.45
2018-01-07T20:21:44.630Z,7.39
2018-01-07T20:24:12.739Z,7.40
2018-01-07T20:26:40.672Z,7.46
2018-01-07T20:29:08.549Z,7.42
2018-01-07T20:31:36.395Z,7.45
2018-01-07T20:34:04.436Z,7.41
2018-01-07T20:36:32.494Z,7.43
2018-01-07T20:39:00.368Z,7.39
2018-01-07T20:41:27.993Z,7.33
2018-01-07T20:43:55.481Z,7.35
2018-01-07T20:46:23.014Z,7.34
2018-01-07T20:48:50.560Z,7.38
2018-01-07T20:51:18.091Z,7.33
2018-01-07T20:53:45.711Z,7.34
2018-01-07T20:56:13.278Z,7.37
2018-01-07T20:58:41.060Z,7.31
2018-01-07T21:01:08.735Z,7.26
2018-01-07T21:03:36.447Z,7.23
2018-01-07T21:06:04.011Z,7.25
2018-01-07T21:08:32.584Z,7.17
2018-01-07T21:11:00.122Z,7.17
2018-01-07T21:13:27.633Z,7.19
2018-01-07T21:15:55.137Z,7.20
2018-01-07T21:18:22.697Z,7.12
2018-01-07T21:20:50.212Z,7.15
2018-01-07T21:23:17.696Z,7.13
2018-01-07T21:25:45.408Z,7.09
2018-01-07T21:28:12.879Z,7.17
2018-01-07T21:30:40.401Z,7.19
2018-01-07T21:33:07.889Z,7.19
2018-01-07T21:35:35.355Z,7.26
2018-01-07T21:38:02.825Z,7.23
2018-01-07T21:40:36.984Z,7.27
2018-01-07T21:43:04.496Z,7.24
2018-01-07T21:45:31.953Z,7.29
2018-01-07T21:47:59.533Z,7.27
2018-01-07T21:50:27.098Z,7.16
2018-01-07T21:52:54.542Z,7.19
2018-01-07T21:55:22.012Z,7.14
2018-01-07T21:57:49.700Z,7.13
2018-01-07T22:00:39.739Z,7.10
2018-01-07T22:03:19.249Z,7.08
2018-01-07T22:05:54.622Z,7.09
2018-01-07T22:08:22.161Z,7.09
2018-01-07T22:10:49.620Z,7.14
2018-01-07T22:13:17.100Z,7.01
2018-01-07T22:15:44.700Z,7.03
2018-01-07T22:18:12.153Z,7.13
2018-01-07T22:20:39.634Z,7.06
2018-01-07T22:23:07.450Z,7.02
2018-01-07T22:25:34.969Z,7.01
2018-01-07T22:28:02.445Z,7.05
2018-01-07T22:30:29.978Z,7.09
2018-01-07T22:32:58.488Z,7.10
2018-01-07T22:35:26.590Z,7.07
2018-01-07T22:37:54.127Z,7.06
2018-01-07T22:40:22.770Z,7.04
2018-01-07T22:42:50.398Z,6.98
2018-01-07T22:45:18.370Z,7.06
2018-01-07T22:47:51.365Z,7.08
2018-01-07T22:50:19.104Z,7.11
2018-01-07T22:52:46.605Z,7.11
2018-01-07T22:55:14.084Z,7.12
2018-01-07T22:57:41.559Z,7.07
2018-01-07T23:00:10.218Z,7.12
2018-01-07T23:02:41.223Z,7.10
2018-01-07T23:05:09.466Z,7.10
2018-01-07T23:07:37.028Z,7.10
2018-01-07T23:10:06.246Z,7.04
2018-01-07T23:12:33.930Z,7.10
2018-01-07T23:15:04.849Z,7.12
2018-01-07T23:17:32.864Z,7.17
2018-01-07T23:20:01.333Z,7.17
2018-01-07T23:22:31.189Z,7.15
2018-01-07T23:24:58.676Z,7.09
2018-01-07T23:27:26.177Z,7.16
2018-01-07T23:29:53.675Z,7.11
2018-01-07T23:32:21.134Z,7.09
2018-01-07T23:34:48.592Z,7.05
2018-01-07T23:37:16.095Z,7.07
2018-01-07T23:39:43.575Z,7.15
2018-01-07T23:42:11.031Z,7.16
2018-01-07T23:44:38.519Z,7.20
2018-01-07T23:47:06.073Z,7.16
2018-01-07T23:49:33.572Z,7.17
2018-01-07T23:52:01.043Z,7.14
2018-01-07T23:54:28.782Z,7.20
2018-01-07T23:56:56.370Z,7.11
2018-01-07T23:59:23.851Z,7.06
